createdAt,value
2017-06-09T00:00:54.593Z,17.06
2017-06-09T00:10:54.577Z,16.85
2017-06-09T00:20:54.544Z,16.77
2017-06-09T00:30:54.563Z,16.52
2017-06-09T00:40:54.532Z,16.4
2017-06-09T00:50:54.595Z,16.3
2017-06-09T01:00:54.553Z,15.93
2017-06-09T01:10:54.518Z,15.85
2017-06-09T01:20:54.592Z,15.97
2017-06-09T01:30:54.548Z,16.2
2017-06-09T01:40:54.609Z,16.06
2017-06-09T01:50:54.555Z,16.09
2017-06-09T02:00:54.544Z,16.26
2017-06-09T02:10:54.577Z,16.3
2017-06-09T02:20:54.560Z,15.96
2017-06-09T02:30:54.657Z,15.82
2017-06-09T02:40:54.595Z,15.45
2017-06-09T02:50:54.544Z,15.48
2017-06-09T03:00:54.599Z,15.35
2017-06-09T03:10:54.553Z,15.59
2017-06-09T03:20:54.522Z,15.59
2017-06-09T03:30:54.625Z,15.72
2017-06-09T03:40:54.550Z,15.78
2017-06-09T03:50:54.633Z,15.84
2017-06-09T04:00:54.732Z,15.99
2017-06-09T04:10:54.582Z,16.38
2017-06-09T04:20:54.599Z,16.75
2017-06-09T04:30:54.570Z,17.14
2017-06-09T04:40:54.531Z,18.22
2017-06-09T04:50:54.602Z,19.28
2017-06-09T05:00:54.529Z,19.47
2017-06-09T05:10:54.621Z,19.87
2017-06-09T05:20:54.570Z,20.39
2017-06-09T05:30:54.660Z,21.27
2017-06-09T05:40:54.595Z,21.39
2017-06-09T05:50:54.563Z,21.39
2017-06-09T06:00:54.643Z,21.3
2017-06-09T06:10:54.644Z,20.98
2017-06-09T06:20:54.643Z,21.59
2017-06-09T06:30:54.548Z,21.39
2017-06-09T06:40:54.618Z,21.79
2017-06-09T06:50:54.609Z,21.72
2017-06-09T07:00:54.513Z,21.39
2017-06-09T07:10:54.529Z,21.56
2017-06-09T07:20:54.602Z,22.71
2017-06-09T07:30:54.516Z,23.77
2017-06-09T07:40:54.524Z,23.7
2017-06-09T07:50:54.548Z,23.39
2017-06-09T08:00:54.556Z,23.23
2017-06-09T08:10:54.546Z,23.72
2017-06-09T08:20:54.519Z,24.34
2017-06-09T08:30:54.595Z,24.44
2017-06-09T08:40:54.540Z,23.82
2017-06-09T08:50:54.550Z,23.86
2017-06-09T09:00:54.543Z,23.49
2017-06-09T09:10:54.629Z,22.71
2017-06-09T09:20:54.546Z,22.96
2017-06-09T09:30:54.566Z,22.01
2017-06-09T09:40:54.558Z,21.75
2017-06-09T09:50:54.544Z,21.14
2017-06-09T10:00:54.572Z,21.09
2017-06-09T10:10:54.573Z,20.81
2017-06-09T10:20:54.567Z,20.12
2017-06-09T10:30:54.583Z,19.35
2017-06-09T10:40:54.572Z,18.84
2017-06-09T10:50:54.560Z,18.18
2017-06-09T11:00:54.550Z,17.51
2017-06-09T11:10:54.606Z,17.23
2017-06-09T11:20:54.556Z,17.17
2017-06-09T11:30:54.560Z,17.33
2017-06-09T11:40:54.726Z,17.33
2017-06-09T11:50:54.626Z,17.32
2017-06-09T12:00:54.758Z,17.79
2017-06-09T12:10:54.753Z,18.55
2017-06-09T12:20:54.623Z,18.98
2017-06-09T12:30:54.579Z,20.12
2017-06-09T12:40:54.564Z,20.02
2017-06-09T12:50:54.588Z,19.87
2017-06-09T13:00:54.603Z,20.64
2017-06-09T13:10:54.577Z,22.1
2017-06-09T13:20:54.591Z,21.66
2017-06-09T13:30:54.576Z,21.95
2017-06-09T13:40:54.579Z,21.75
2017-06-09T13:50:54.601Z,21.71
2017-06-09T14:00:54.585Z,21.51
2017-06-09T14:10:54.632Z,22.68
2017-06-09T14:20:54.591Z,22.12
2017-06-09T14:30:54.688Z,22.22
2017-06-09T14:40:54.573Z,22.62
2017-06-09T14:50:54.594Z,21.99
2017-06-09T15:00:54.577Z,22.31
2017-06-09T15:10:54.581Z,22.04
2017-06-09T15:20:54.604Z,21.32
2017-06-09T15:30:54.589Z,22.02
2017-06-09T15:40:54.608Z,21.87
2017-06-09T15:50:54.589Z,21.95
2017-06-09T16:00:54.608Z,21.87
2017-06-09T16:11:04.987Z,21.72
2017-06-09T16:20:54.671Z,21.78
2017-06-09T16:30:54.635Z,21.85
2017-06-09T16:40:54.732Z,21.51
2017-06-09T16:50:55.141Z,21.35
2017-06-09T17:00:54.735Z,21.2
2017-06-09T17:10:54.727Z,20.95
2017-06-09T17:20:54.763Z,20.84
2017-06-09T17:30:54.821Z,20.81
2017-06-09T17:40:54.908Z,20.65
2017-06-09T17:50:54.746Z,20.43
2017-06-09T18:00:54.785Z,20.25
2017-06-09T18:10:54.702Z,20.08
2017-06-09T18:20:54.817Z,19.98
2017-06-09T18:30:54.766Z,19.66
2017-06-09T18:40:54.738Z,19.4
2017-06-09T18:50:54.664Z,19.06
2017-06-09T19:00:54.944Z,18.68
2017-06-09T19:10:54.738Z,18.46
2017-06-09T19:20:54.692Z,18.19
2017-06-09T19:30:54.776Z,17.87
2017-06-09T19:40:54.769Z,17.54
2017-06-09T19:50:54.816Z,17.15
2017-06-09T20:00:54.744Z,17.08
2017-06-09T20:10:54.662Z,16.8
2017-06-09T20:20:55.874Z,16.6
2017-06-09T20:30:54.777Z,16.41
2017-06-09T20:40:54.668Z,16.31
2017-06-09T20:50:54.706Z,16.04
2017-06-09T21:00:54.728Z,15.81
2017-06-09T21:10:54.713Z,15.6
2017-06-09T21:20:54.744Z,15.19
2017-06-09T21:30:54.647Z,14.67
2017-06-09T21:40:54.938Z,14.17
2017-06-09T21:50:54.689Z,13.95
2017-06-09T22:00:54.719Z,13.76
2017-06-09T22:10:54.692Z,13.79
2017-06-09T22:20:54.731Z,13.96
2017-06-09T22:30:54.724Z,13.89
2017-06-09T22:40:54.821Z,13.49
2017-06-09T22:50:54.687Z,13.2
2017-06-09T23:00:54.697Z,13.06
2017-06-09T23:10:54.720Z,12.81
2017-06-09T23:20:54.902Z,12.78
2017-06-09T23:30:54.708Z,12.52
2017-06-09T23:40:54.647Z,12.69
2017-06-09T23:50:54.708Z,12.7
